• Join FlightAware (Why Join?)
  • Login
  • US Flag 
11:22PM EDT


 

Airport Tracker/Info


-or-


 

Live Flight TrackerFlight Track Log ✈ N658FE ✈ 30-Apr-2013 ✈ KSLC - KOAK

Flight Track Log - Related Links

Times and Time Zones

All times are in EDT time to prevent confusion due to time zone crossing. See the N658FE flight status page for this flight to view local times or setup timezone preferences in your user account.

Time Position Orientation Groundspeed Altitude Reporting Facility
EDT Latitude Longitude Course Direction KTS MPH feet Rate Location/Type
11:39PM 40.7960 -111.9980 169° South 5,000  Level FlightAware
11:40PM 40.8050 -112.0020 341° North 5,900 1,980 Climbing FlightAware
11:40PM 40.8120 -112.0110 316° Northwest 6,400 1,980 Climbing FlightAware
11:40PM 40.8260 -112.0420 301° West 7,200 1,980 Climbing FlightAware
11:41PM 40.8340 -112.0630 297° West 8,200 1,980 Climbing FlightAware
11:41PM 40.8470 -112.0970 297° West 9,800 1,980 Climbing FlightAware
11:42PM 40.8740 -112.1710 296° West 11,700 1,920 Climbing FlightAware
11:43PM 40.8850 -112.2540 280° West 14,900 1,860 Climbing FlightAware
11:43PM 40.8800 -112.3400 266° West 17,800 1,680 Climbing FlightAware
11:44PM 40.8720 -112.4340 264° West 20,700 1,560 Climbing FlightAware
11:45PM 40.8650 -112.5250 264° West 22,900 1,380 Climbing FlightAware
11:45PM 40.8610 -112.5970 266° West 24,700 1,260 Climbing FlightAware
11:46PM 40.8380 -112.7110 255° West 26,800 1,140 Climbing FlightAware
11:47PM 40.7790 -112.8590 242° Southwest 29,700 1,020 Climbing FlightAware
11:48PM 40.7470 -112.9390 242° Southwest 31,600 780 Climbing FlightAware
11:49PM 40.7080 -113.0380 243° Southwest 32,900 600 Climbing FlightAware
11:49PM 40.6820 -113.1050 243° Southwest 33,900 480 Climbing FlightAware
11:50PM 40.6430 -113.2020 242° Southwest 35,400 360 Climbing FlightAware
11:51PM 40.6130 -113.2800 243° Southwest 36,000 120 Climbing FlightAware
11:52PM 40.5600 -113.4120 242° Southwest 36,000  Level FlightAware
11:52PM 40.5270 -113.4940 242° Southwest 36,000  Level FlightAware
11:53PM 40.4880 -113.5900 242° Southwest 36,000  Level FlightAware
11:54PM 40.4540 -113.6740 242° Southwest 36,000  Level FlightAware
11:54PM 40.4150 -113.7720 242° Southwest 36,000  Level FlightAware
11:55PM 40.4078 -113.7981 251° West 397 457 36,000  Level Salt Lake Center
11:55PM 40.3800 -113.8580 242° Southwest 36,000  Level FlightAware
11:56PM 40.3567 -113.9247 242° Southwest 396 456 36,000  Level Salt Lake Center
11:56PM 40.3460 -113.9410 242° Southwest 36,000  Level FlightAware
11:57PM 40.3110 -114.0290 242° Southwest 36,000  Level FlightAware
11:57PM 40.3075 -114.0453 242° Southwest 382 440 36,000  Level Salt Lake Center
11:57PM 40.2770 -114.1120 242° Southwest 36,000  Level FlightAware
11:58PM 40.2561 -114.1681 241° Southwest 383 441 36,000  Level Salt Lake Center
11:58PM 40.2420 -114.1960 241° Southwest 36,000  Level FlightAware
12:00AM 40.1829 -114.4145 251° West  Level Estimated
12:03AM 39.9640 -114.8660 241° Southwest 36,000  Level FlightAware
12:04AM 39.9283 -114.9511 241° Southwest 395 455 36,000  Level Salt Lake Center
12:05AM 39.8775 -115.0700 241° Southwest 393 452 36,000  Level Salt Lake Center
12:06AM 39.8272 -115.1889 241° Southwest 392 451 36,000  Level Salt Lake Center
12:07AM 39.7683 -115.3286 241° Southwest 392 451 36,000  Level Salt Lake Center
12:08AM 39.7158 -115.4494 241° Southwest 396 456 36,000  Level Salt Lake Center
12:09AM 39.6644 -115.5694 241° Southwest 398 458 36,000  Level Salt Lake Center
12:10AM 39.6042 -115.7114 241° Southwest 400 460 36,000  Level Salt Lake Center
12:11AM 39.5511 -115.8344 241° Southwest 406 467 36,000  Level Salt Lake Center
12:12AM 39.4975 -115.9586 241° Southwest 409 471 36,000  Level Salt Lake Center
12:13AM 39.4433 -116.0825 241° Southwest 412 474 36,000  Level Salt Lake Center
12:14AM 39.3819 -116.2239 241° Southwest 405 466 36,000  Level Salt Lake Center
12:15AM 39.3283 -116.3447 240° Southwest 405 466 36,000  Level Salt Lake Center
12:16AM 39.2742 -116.4678 240° Southwest 408 470 36,000  Level Salt Lake Center
12:17AM 39.2100 -116.6139 240° Southwest 413 475 36,000  Level Salt Lake Center
12:18AM 39.1556 -116.7361 240° Southwest 414 476 36,000  Level Salt Lake Center
12:19AM 39.1000 -116.8589 240° Southwest 413 475 36,000  Level Salt Lake Center
12:20AM 39.0433 -116.9842 240° Southwest 410 472 36,000  Level Salt Lake Center
12:21AM 38.9736 -117.1392 240° Southwest 418 481 36,000  Level Salt Lake Center
12:22AM 38.9142 -117.2722 240° Southwest 428 493 36,000  Level Salt Lake Center
12:23AM 38.8544 -117.4031 240° Southwest 428 493 36,000  Level Salt Lake Center
12:24AM 38.7944 -117.5336 240° Southwest 429 494 36,000  Level Salt Lake Center
12:25AM 38.7347 -117.6667 240° Southwest 429 494 36,000  Level Oakland Center
12:27AM 38.6541 -117.8200 236° Southwest  Level FlightAware Approximate
12:29AM 38.4944 -118.2000 243° Southwest 438 504 36,000  Level Salt Lake Center
12:30AM 38.4375 -118.3339 242° Southwest 432 497 36,000 -1,080 Level Salt Lake Center
12:34AM 38.2863 -118.6644 243° Southwest  Level FlightAware Approximate
12:36AM 38.1160 -119.2100 242° Southwest 36,000  Level FlightAware
12:37AM 38.1000 -119.3070 258° West 36,000 -1,320 Level FlightAware
12:38AM 38.0810 -119.4190 258° West 36,000 -1,380 Level FlightAware
12:39AM 38.0520 -119.5910 258° West 36,000 -1,440 Level FlightAware
12:40AM 38.0360 -119.6890 258° West 36,000 -1,500 Level FlightAware
12:40AM 38.0190 -119.7900 258° West 35,400 -1,560 Descending FlightAware
12:41AM 38.0000 -119.8970 257° West 34,700 -1,560 Descending FlightAware
12:42AM 37.9840 -119.9920 258° West 34,100 -1,560 Descending FlightAware
12:42AM 37.9660 -120.0940 257° West 33,300 -1,560 Descending FlightAware
12:43AM 37.9470 -120.2030 258° West 31,400 -1,620 Descending FlightAware
12:44AM 37.9240 -120.3390 258° West 29,300 -1,560 Descending FlightAware
12:45AM 37.9060 -120.4400 257° West 27,700 -1,500 Descending FlightAware
12:46AM 37.8890 -120.5320 257° West 26,200 -1,500 Descending FlightAware
12:46AM 37.8760 -120.6100 258° West 24,900 -1,500 Descending FlightAware
12:47AM 37.8630 -120.7040 260° West 23,700 -1,440 Descending FlightAware
12:48AM 37.8570 -120.8010 266° West 21,900 -1,440 Descending FlightAware
12:48AM 37.8510 -120.8960 265° West 20,200 -1,380 Descending FlightAware
12:49AM 37.8400 -120.9790 260° West 18,800 -1,320 Descending FlightAware
12:50AM 37.8190 -121.0590 252° West 17,100 -1,320 Descending FlightAware
12:50AM 37.7930 -121.1550 251° West 14,500 -1,260 Descending FlightAware
12:51AM 37.7720 -121.2360 252° West 12,900 -1,140 Descending FlightAware
12:52AM 37.7530 -121.3040 251° West 11,900 -1,020 Descending FlightAware
12:52AM 37.7310 -121.3880 252° West 11,300 -1,020 Descending FlightAware
12:53AM 37.7110 -121.4620 251° West 10,200 -1,020 Descending FlightAware
12:53AM 37.7050 -121.4880 254° West 9,800 -960 Descending FlightAware
12:54AM 37.6930 -121.5330 251° West 9,100 -960 Descending FlightAware
12:54AM 37.6810 -121.5750 250° West 8,500 -960 Descending FlightAware
12:55AM 37.6770 -121.5880 249° West 8,300 -900 Descending FlightAware
12:55AM 37.6610 -121.6480 251° West 8,100 -900 Descending FlightAware
12:56AM 37.6420 -121.7110 249° West 8,100 -960 Level FlightAware
12:56AM 37.6250 -121.7570 245° Southwest 7,200 -1,020 Descending FlightAware
12:58AM 37.5890 -121.8830 250° West 5,100 -960 Descending FlightAware
12:58AM 37.5780 -121.9210 250° West 5,000 -840 Descending FlightAware
12:59AM 37.5640 -121.9650 248° West 4,700 -900 Descending FlightAware
12:59AM 37.5620 -121.9840 262° West 4,600 -900 Descending FlightAware
12:59AM 37.5730 -122.0230 290° West 3,900 -960 Descending FlightAware
01:00AM 37.5940 -122.0520 312° West 3,200 -900 Descending FlightAware
01:00AM 37.6040 -122.0680 308° West 2,900 -840 Descending FlightAware
01:01AM 37.6230 -122.0970 310° West 2,400 -840 Descending FlightAware
01:01AM 37.6360 -122.1150 312° West 2,000 -840 Descending FlightAware
01:02AM 37.6520 -122.1410 308° West 1,500 -780 Descending FlightAware
01:02AM 37.6640 -122.1580 312° West 1,200 -720 Descending FlightAware
01:03AM 37.6780 -122.1790 310° West 800 -660 Descending FlightAware
01:03AM 37.6833 -122.2000 310° West 119 137 500 -720 Descending Northern Cal TRACON
01:04AM 37.6925 -122.2011 355° North 135 155 200 -720 Descending Oakland Center
01:07AM 37.7167 -122.2167 270° West  Level FlightAware Approximate